< < Back
Terminal Aerodrome Forecast


Current Version              Previous Versions:   1  2  3  4  5  6  7  8  9  

Terminal Aerodrome Forecast

644
FTUS42 KCHS 291734
TAFCHS
TAF
KCHS 291734Z 2918/3018 04008KT P6SM SKC
     FM292100 15005KT P6SM SKC
     FM300800 21004KT P6SM FEW080
     FM301400 24015G21KT P6SM BKN050=

Latest METAR

288
SAUS80 KWBC 300900
MTRCHS
METAR KCHS 300856Z 21004KT 10SM CLR 05/02 A3023 RMK AO2 SLP235 T00500017
56023


USA.gov is the U.S. government's official web portal to all federal, state and local government web resources and services.